Sterling, Pennsylvania
Current Conditions -  °F | °C
As of 8:53 PM on Sunday 25 Jan 2015 (Local Time) from KMPO Reporting Station
Overcast Overcast  
Wind Chill: 13°   Ceiling: 3900
Heat Index: 22°   Visibility: 10mi
Dew Point:   Wind: 7mph
Humidity: 55%   Direction: 10°N
Pressure: 29.85"   Gusts: NA
Location:  41.34°N, 75.39°W
Report Text: KMPO 260153Z AUTO 01006KT 10SM OVC039 M06/M13 A2985 RMK AO2 SLP133 T10561133
Loading
Personal Weather Stations






























Interactive Weather Map New forecast layout! Learn more

10-Day Weather Forecast

Advertisements
Track Severe Weather on mobile